Time;durP1;ratioP1;P1;durP2;ratioP2;P2;SDS_P1;SDS_P2;PMS_P1;PMS_P2;Temp;Humidity;BMP_temperature;BMP_pressure;BME280_temperature;BME280_humidity;BME280_pressure;Samples;Min_cycle;Max_cycle;Signal;HPM_P1;HPM_P2
2022/11/18 00:00:49;;;;;;;3.08;2.72;;;;;;;8.18;91.92;95470.38;5113520;28;20048;-61
2022/11/18 00:03:16;;;;;;;3.30;2.80;;;;;;;8.18;91.46;95468.63;5113409;28;20048;-61
2022/11/18 00:05:52;;;;;;;2.22;2.03;;;;;;;8.20;91.18;95476.38;5113338;28;20056;-61
2022/11/18 00:08:21;;;;;;;3.00;2.03;;;;;;;8.20;91.25;95473.78;5113516;28;20044;-61
2022/11/18 00:10:48;;;;;;;2.75;2.28;;;;;;;8.20;90.87;95472.03;5113314;28;20055;-61
2022/11/18 00:16:04;;;;;;;3.00;2.25;;;;;;;8.13;91.25;95468.00;5113408;28;20050;-61
2022/11/18 00:18:32;;;;;;;3.35;2.80;;;;;;;8.08;92.47;95472.56;5113244;28;20039;-61
2022/11/18 00:21:02;;;;;;;3.38;2.67;;;;;;;8.03;91.89;95469.31;5117028;28;20096;-61
2022/11/18 00:23:31;;;;;;;3.83;2.40;;;;;;;7.96;92.20;95467.03;5117341;28;20459;-61
2022/11/18 00:26:03;;;;;;;2.78;2.25;;;;;;;8.00;92.02;95464.28;5117404;28;20048;-61
2022/11/18 00:28:31;;;;;;;7.45;2.80;;;;;;;8.04;91.96;95473.63;5117306;28;20055;-61
2022/11/18 00:31:02;;;;;;;6.10;2.47;;;;;;;8.03;91.89;95470.19;5117215;28;20088;-61
2022/11/18 00:33:30;;;;;;;4.28;2.90;;;;;;;8.04;91.48;95471.03;5117038;28;20048;-61
2022/11/18 00:35:57;;;;;;;5.18;2.28;;;;;;;8.05;91.00;95467.50;5116997;28;20066;-61
2022/11/18 00:38:25;;;;;;;7.30;2.58;;;;;;;8.06;90.53;95470.03;5117073;27;20051;-61
2022/11/18 00:41:01;;;;;;;3.10;2.30;;;;;;;8.08;90.29;95470.81;5116853;27;20493;-61
2022/11/18 00:43:27;;;;;;;4.50;2.97;;;;;;;8.06;90.25;95470.03;5116922;28;20456;-61
2022/11/18 00:45:54;;;;;;;3.83;2.55;;;;;;;8.03;90.42;95464.13;5116849;28;20562;-61
2022/11/18 00:48:21;;;;;;;3.20;2.28;;;;;;;8.01;90.30;95465.97;5116787;28;20043;-61
2022/11/18 00:50:50;;;;;;;2.97;2.55;;;;;;;8.04;90.48;95464.03;5116792;28;20046;-61
2022/11/18 00:53:17;;;;;;;6.63;2.60;;;;;;;8.06;90.58;95464.84;5116773;27;20044;-61
2022/11/18 00:55:45;;;;;;;3.20;2.20;;;;;;;8.05;90.61;95462.28;5116750;27;20056;-61
2022/11/18 00:58:14;;;;;;;2.65;2.42;;;;;;;8.06;90.02;95459.63;5116671;28;20043;-61
2022/11/18 01:00:42;;;;;;;3.78;2.30;;;;;;;7.99;89.66;95460.81;5116706;27;20044;-61
2022/11/18 01:03:09;;;;;;;4.22;3.10;;;;;;;7.98;89.37;95469.56;5116638;28;20044;-61
2022/11/18 01:05:36;;;;;;;3.33;2.55;;;;;;;7.93;89.39;95458.47;5116690;28;20451;-62
2022/11/18 01:08:04;;;;;;;3.45;2.58;;;;;;;7.87;88.72;95459.59;5116493;28;20051;-61
2022/11/18 01:10:33;;;;;;;3.70;2.10;;;;;;;7.83;88.07;95458.88;5116484;28;20043;-61
2022/11/18 01:15:54;;;;;;;3.08;1.80;;;;;;;7.66;88.73;95457.03;5110601;28;20463;-61
2022/11/18 01:18:23;;;;;;;2.63;2.20;;;;;;;7.63;88.84;95466.72;5116409;28;20054;-61
2022/11/18 01:20:51;;;;;;;3.70;2.60;;;;;;;7.59;88.38;95455.63;5116248;28;20075;-61
2022/11/18 01:23:20;;;;;;;5.03;2.20;;;;;;;7.53;88.29;95458.47;5116190;28;20488;-61
2022/11/18 01:25:49;;;;;;;2.53;2.25;;;;;;;7.48;88.17;95463.03;5116128;28;20083;-61
2022/11/18 01:28:17;;;;;;;2.45;1.80;;;;;;;7.45;88.19;95451.00;5116105;28;20126;-61
2022/11/18 01:30:44;;;;;;;3.45;2.28;;;;;;;7.42;88.20;95453.72;5115060;28;20109;-61
2022/11/18 01:33:13;;;;;;;2.83;2.10;;;;;;;7.32;88.23;95453.28;5115999;28;20405;-61
2022/11/18 01:35:42;;;;;;;3.63;2.38;;;;;;;7.25;88.31;95452.69;5115934;27;20096;-61
2022/11/18 01:38:11;;;;;;;3.08;2.30;;;;;;;7.27;88.04;95450.88;5115842;28;20134;-61
2022/11/18 01:40:39;;;;;;;3.60;2.22;;;;;;;7.26;88.08;95444.00;5115466;28;20381;-61
2022/11/18 01:43:12;;;;;;;2.20;2.00;;;;;;;7.18;87.79;95446.06;5115768;28;20504;-61
2022/11/18 01:45:42;;;;;;;6.35;1.88;;;;;;;7.14;87.97;95444.50;5115874;28;20093;-61
2022/11/18 01:48:14;;;;;;;2.40;1.95;;;;;;;7.16;88.01;95450.47;5115789;27;20048;-62
2022/11/18 01:50:47;;;;;;;2.10;1.90;;;;;;;7.13;87.62;95450.63;5115780;28;20048;-61
2022/11/18 01:53:20;;;;;;;2.97;1.98;;;;;;;7.01;87.20;95442.41;5115539;28;20485;-61
2022/11/18 01:55:50;;;;;;;4.97;2.25;;;;;;;7.00;86.85;95435.53;5115672;28;20047;-61
2022/11/18 01:58:24;;;;;;;2.28;1.52;;;;;;;7.00;87.18;95439.88;5115524;28;20485;-61
2022/11/18 02:00:51;;;;;;;2.15;1.50;;;;;;;6.95;87.04;95438.31;5115563;28;20047;-61
2022/11/18 02:03:20;;;;;;;2.67;2.08;;;;;;;6.90;87.12;95442.88;5115334;28;20558;-61
2022/11/18 02:05:50;;;;;;;3.35;2.25;;;;;;;6.92;86.96;95453.16;5115383;28;20059;-61
2022/11/18 02:08:19;;;;;;;3.72;2.75;;;;;;;6.91;87.13;95448.88;5115309;28;20075;-61
2022/11/18 02:10:46;;;;;;;3.30;2.45;;;;;;;6.80;86.64;95455.38;5115272;28;20083;-61
2022/11/18 02:13:14;;;;;;;2.92;2.40;;;;;;;6.78;87.47;95453.75;5115191;28;20127;-61
2022/11/18 02:15:53;;;;;;;4.97;2.33;;;;;;;6.75;86.95;95464.28;5115308;28;20048;-61
2022/11/18 02:18:31;;;;;;;3.28;2.13;;;;;;;6.67;86.30;95462.81;5115092;28;20052;-61
2022/11/18 02:21:17;;;;;;;2.42;1.65;;;;;;;6.57;86.27;95461.50;5115166;28;20146;-61
2022/11/18 02:24:28;;;;;;;2.83;2.22;;;;;;;6.38;86.95;95459.59;5114940;27;20043;-61
2022/11/18 02:27:27;;;;;;;2.65;2.20;;;;;;;6.28;86.73;95450.47;5115000;28;20101;-61
2022/11/18 02:30:02;;;;;;;4.78;2.22;;;;;;;6.13;87.39;95457.09;5114967;28;20050;-61
2022/11/18 02:32:34;;;;;;;2.95;1.98;;;;;;;6.01;87.81;95447.97;5114750;28;20382;-61
2022/11/18 02:35:07;;;;;;;3.25;2.28;;;;;;;6.04;89.13;95466.94;5114811;28;20094;-61
2022/11/18 02:37:39;;;;;;;2.85;1.92;;;;;;;6.07;89.94;95458.16;5114815;28;20079;-61
2022/11/18 02:40:13;;;;;;;3.50;2.55;;;;;;;6.01;90.11;95459.22;5114551;28;20124;-61
2022/11/18 02:42:45;;;;;;;3.28;2.53;;;;;;;6.01;91.88;95455.75;5114449;28;20043;-61
2022/11/18 02:45:17;;;;;;;3.60;2.75;;;;;;;6.08;91.62;95454.66;5114531;28;20485;-61
2022/11/18 02:47:47;;;;;;;3.05;2.38;;;;;;;6.10;91.20;95457.19;5114526;28;20507;-61
2022/11/18 02:50:19;;;;;;;5.72;2.75;;;;;;;6.05;91.10;95455.63;5114497;27;20101;-61
2022/11/18 02:52:49;;;;;;;2.90;2.35;;;;;;;6.11;91.13;95458.91;5114478;28;20404;-61
2022/11/18 02:55:18;;;;;;;6.72;2.28;;;;;;;6.15;90.46;95461.34;5114426;28;20127;-61
2022/11/18 02:57:46;;;;;;;2.33;2.08;;;;;;;6.10;89.69;95460.66;5114305;28;20093;-61
2022/11/18 03:00:16;;;;;;;2.20;2.00;;;;;;;6.01;89.41;95461.81;5114302;27;20412;-61
2022/11/18 03:02:46;;;;;;;2.85;1.40;;;;;;;6.03;88.87;95472.16;5114219;28;20473;-61
2022/11/18 03:05:20;;;;;;;3.67;2.08;;;;;;;5.96;88.86;95457.69;5114199;27;20122;-61
2022/11/18 03:07:51;;;;;;;1.88;1.77;;;;;;;5.96;88.76;95462.91;5114215;28;20083;-61
2022/11/18 03:10:22;;;;;;;6.63;2.03;;;;;;;5.94;88.53;95468.16;5114087;28;20056;-61
2022/11/18 03:12:57;;;;;;;6.30;2.20;;;;;;;5.92;88.71;95464.75;5114124;28;20071;-61
2022/11/18 03:15:36;;;;;;;2.28;1.80;;;;;;;5.88;88.56;95463.16;5114060;28;20426;-62
2022/11/18 03:18:15;;;;;;;4.72;1.77;;;;;;;5.78;88.42;95455.72;5113913;28;20052;-61
2022/11/18 03:20:48;;;;;;;2.50;2.03;;;;;;;5.72;88.74;95460.28;5113974;28;20055;-61
2022/11/18 03:23:24;;;;;;;2.28;2.08;;;;;;;5.74;89.34;95461.91;5113920;28;20089;-61
2022/11/18 03:25:55;;;;;;;2.22;1.95;;;;;;;5.68;88.91;95464.72;5113958;28;20105;-61
2022/11/18 03:28:24;;;;;;;;;;;;;;;5.60;88.69;95465.00;5114388;28;20180;-61
2022/11/18 03:30:59;;;;;;;4.32;2.47;;;;;;;5.54;89.20;95468.66;5113671;28;19920;-61
2022/11/18 03:33:35;;;;;;;3.63;2.10;;;;;;;5.44;88.95;95469.88;5113845;28;20050;-61
2022/11/18 03:36:06;;;;;;;3.50;2.58;;;;;;;5.41;89.25;95465.66;5113726;28;20079;-61
2022/11/18 03:38:38;;;;;;;3.58;2.17;;;;;;;5.34;90.34;95468.50;5113549;28;20764;-61
2022/11/18 03:41:09;;;;;;;3.55;2.35;;;;;;;5.35;90.98;95471.06;5113734;28;20078;-61
2022/11/18 03:43:40;;;;;;;2.55;2.20;;;;;;;5.29;90.74;95459.16;5113815;28;20051;-61
2022/11/18 03:46:13;;;;;;;3.40;2.33;;;;;;;5.34;90.63;95468.50;5113625;28;20108;-61
2022/11/18 03:48:44;;;;;;;3.22;2.50;;;;;;;5.37;90.77;95461.47;5113723;28;20123;-61
2022/11/18 03:51:14;;;;;;;2.83;2.30;;;;;;;5.45;90.76;95471.59;5113599;28;20052;-61
2022/11/18 03:53:47;;;;;;;2.72;2.13;;;;;;;5.49;90.04;95467.13;5113098;28;20132;-61
2022/11/18 03:56:19;;;;;;;2.92;2.17;;;;;;;5.48;89.71;95468.88;5113581;28;20043;-61
2022/11/18 03:58:53;;;;;;;5.15;2.05;;;;;;;5.47;89.32;95464.59;5113361;28;20097;-62
2022/11/18 04:01:30;;;;;;;4.95;2.10;;;;;;;5.46;89.32;95467.22;5113616;28;20079;-61
2022/11/18 04:03:57;;;;;;;5.00;2.17;;;;;;;5.47;89.06;95471.50;5113450;28;20055;-61
2022/11/18 04:06:33;;;;;;;6.57;2.38;;;;;;;5.51;89.72;95473.13;5113366;28;20542;-61
2022/11/18 04:09:07;;;;;;;2.70;2.13;;;;;;;5.54;89.26;95473.03;5113439;28;20048;-61
2022/11/18 04:14:26;;;;;;;2.88;2.30;;;;;;;5.60;89.02;95480.56;5113472;28;20470;-61
2022/11/18 04:16:55;;;;;;;4.18;2.00;;;;;;;5.62;89.05;95483.97;5113322;28;20051;-61
2022/11/18 04:19:22;;;;;;;8.10;2.40;;;;;;;5.59;88.73;95485.81;5113280;28;20100;-61
2022/11/18 04:21:50;;;;;;;2.60;2.38;;;;;;;5.54;88.51;95486.81;5113213;28;20497;-60
2022/11/18 04:24:17;;;;;;;4.47;2.03;;;;;;;5.51;87.67;95497.31;5113364;28;20136;-61
2022/11/18 04:26:44;;;;;;;5.47;1.90;;;;;;;5.48;88.04;95489.63;5113409;28;20044;-61
2022/11/18 04:29:11;;;;;;;3.85;2.40;;;;;;;5.43;88.21;95489.81;5113149;28;20054;-61
2022/11/18 04:31:39;;;;;;;2.13;1.77;;;;;;;5.40;89.12;95491.66;5113232;28;20055;-61
2022/11/18 04:34:08;;;;;;;3.33;2.53;;;;;;;5.40;88.66;95489.06;5113203;28;20039;-61
2022/11/18 04:36:35;;;;;;;5.38;2.47;;;;;;;5.28;88.80;95488.56;5113187;28;20101;-61
2022/11/18 04:39:02;;;;;;;5.63;3.50;;;;;;;5.30;89.41;95491.94;5113037;28;20178;-61
2022/11/18 04:44:11;;;;;;;;;;;;;;;5.41;88.88;95489.00;5113448;28;20051;-61
2022/11/18 04:46:40;;;;;;;4.22;2.47;;;;;;;5.35;88.78;95490.94;5112998;28;19919;-61
2022/11/18 04:49:10;;;;;;;2.97;2.10;;;;;;;5.31;88.18;95487.63;5113084;28;20123;-61
2022/11/18 04:51:37;;;;;;;2.90;2.17;;;;;;;5.29;88.00;95485.09;5112983;28;20123;-61
2022/11/18 04:54:06;;;;;;;2.80;2.03;;;;;;;5.28;87.87;95485.13;5112939;28;20050;-61
2022/11/18 04:56:36;;;;;;;2.78;2.17;;;;;;;5.22;88.19;95483.59;5113068;28;20047;-61
2022/11/18 04:59:04;;;;;;;3.33;2.67;;;;;;;5.18;89.42;95484.59;5112920;28;20050;-61
2022/11/18 05:01:32;;;;;;;2.95;2.25;;;;;;;5.22;89.90;95483.59;5112984;28;20122;-61
2022/11/18 05:04:00;;;;;;;3.65;2.50;;;;;;;5.24;90.02;95486.97;5112935;28;20439;-61
2022/11/18 05:06:30;;;;;;;5.50;3.17;;;;;;;5.29;90.27;95487.66;5114036;28;20044;-62
2022/11/18 05:08:58;;;;;;;4.10;2.60;;;;;;;5.34;90.26;95494.44;5116528;28;20083;-61
2022/11/18 05:14:10;;;;;;;3.63;3.15;;;;;;;5.39;89.13;95500.34;5116614;28;20350;-61
2022/11/18 05:16:37;;;;;;;5.82;3.08;;;;;;;5.39;88.87;95498.56;5116360;28;20055;-60
2022/11/18 05:19:06;;;;;;;4.25;3.17;;;;;;;5.39;88.25;95497.75;5116213;28;20093;-60
2022/11/18 05:21:35;;;;;;;5.20;2.85;;;;;;;5.37;87.86;95490.00;5116368;28;20043;-61
2022/11/18 05:24:02;;;;;;;5.97;3.58;;;;;;;5.33;88.20;95501.41;5116269;28;20048;-61
2022/11/18 05:26:30;;;;;;;4.65;2.55;;;;;;;5.35;87.94;95498.72;5116142;28;20382;-60
2022/11/18 05:28:58;;;;;;;3.92;2.83;;;;;;;5.30;87.60;95510.09;5116221;28;20534;-61
2022/11/18 05:31:25;;;;;;;3.75;3.08;;;;;;;5.29;87.86;95495.44;5116004;28;20130;-61
2022/11/18 05:33:52;;;;;;;4.60;2.63;;;;;;;5.37;88.94;95500.38;5116136;28;20044;-61
2022/11/18 05:36:21;;;;;;;3.28;2.55;;;;;;;5.36;89.00;95501.25;5116123;27;20409;-61
2022/11/18 05:38:50;;;;;;;3.30;2.17;;;;;;;5.37;89.15;95502.97;5115555;28;20058;-61
2022/11/18 05:44:04;;;;;;;5.05;3.10;;;;;;;5.48;88.96;95500.00;5115991;28;20053;-61
2022/11/18 05:46:32;;;;;;;5.32;3.53;;;;;;;5.52;89.19;95509.38;5115728;28;20488;-61
2022/11/18 05:48:59;;;;;;;4.03;3.05;;;;;;;5.55;89.54;95508.44;5115805;28;20060;-61
2022/11/18 05:51:26;;;;;;;2.92;2.60;;;;;;;5.60;90.19;95509.09;5115625;28;20130;-61
2022/11/18 05:53:57;;;;;;;5.53;3.67;;;;;;;6.14;92.46;95510.75;5115686;28;20075;-61
2022/11/18 05:56:28;;;;;;;10.60;6.00;;;;;;;7.41;91.04;95517.91;5115716;28;20044;-61
2022/11/18 05:58:56;;;;;;;8.23;5.75;;;;;;;8.89;83.07;95523.66;5115605;28;20130;-61
2022/11/18 06:12:06;;;;;;;3.28;2.03;;;;;;;16.99;54.21;95521.19;5111119;27;20377;-62
2022/11/18 06:14:37;;;;;;;3.55;2.33;;;;;;;18.12;50.45;95512.97;5111014;28;20475;-62
2022/11/18 06:17:09;;;;;;;3.42;1.90;;;;;;;19.12;47.55;95510.59;5110850;28;20499;-60
2022/11/18 06:19:36;;;;;;;2.78;1.92;;;;;;;19.98;44.93;95510.03;5110722;28;20076;-60
2022/11/18 06:22:05;;;;;;;1.75;1.65;;;;;;;20.60;43.51;95509.59;5110833;28;20127;-60
2022/11/18 06:24:33;;;;;;;2.25;1.67;;;;;;;21.33;41.86;95510.63;5110700;28;20074;-60
2022/11/18 06:27:00;;;;;;;2.00;1.77;;;;;;;21.90;40.41;95511.31;5110569;28;20082;-61
2022/11/18 06:29:31;;;;;;;4.75;1.90;;;;;;;22.50;39.76;95500.03;5110567;28;20142;-61
2022/11/18 06:31:58;;;;;;;2.25;1.88;;;;;;;23.23;37.90;95503.19;5110507;28;20131;-61
2022/11/18 06:34:25;;;;;;;2.85;2.00;;;;;;;23.71;37.04;95499.94;5110446;28;20101;-61
2022/11/18 06:36:52;;;;;;;2.15;1.55;;;;;;;24.32;35.84;95499.59;5110440;28;20054;-61
2022/11/18 06:39:19;;;;;;;2.95;2.28;;;;;;;24.91;34.36;95497.59;5110317;28;20131;-61
2022/11/18 06:41:46;;;;;;;2.97;2.17;;;;;;;25.39;33.78;95507.38;5110394;28;20040;-61
2022/11/18 06:44:13;;;;;;;5.03;1.85;;;;;;;25.67;32.73;95516.78;5110272;28;20055;-61
2022/11/18 06:46:56;;;;;;;2.30;1.85;;;;;;;25.68;33.23;95519.28;5110175;28;20374;-61
2022/11/18 06:49:24;;;;;;;2.20;2.00;;;;;;;26.07;32.46;95519.28;5110115;28;20131;-61
2022/11/18 06:51:51;;;;;;;2.20;1.90;;;;;;;26.55;31.27;95515.50;5110163;28;20043;-61
2022/11/18 06:54:19;;;;;;;2.25;1.90;;;;;;;27.06;30.87;95514.75;5110112;28;20130;-61
2022/11/18 06:56:46;;;;;;;2.38;2.17;;;;;;;27.38;29.92;95511.81;5110051;28;20138;-61
2022/11/18 06:59:14;;;;;;;4.80;2.15;;;;;;;27.36;30.14;95512.03;5110131;28;20052;-61
2022/11/18 07:01:42;;;;;;;3.00;2.33;;;;;;;27.63;29.30;95515.00;5109833;28;20105;-61
2022/11/18 07:04:09;;;;;;;3.92;2.28;;;;;;;27.99;29.38;95512.47;5109921;28;20044;-61
2022/11/18 07:06:37;;;;;;;2.58;1.98;;;;;;;28.19;29.09;95512.63;5109851;28;20431;-61
2022/11/18 07:09:06;;;;;;;1.95;1.80;;;;;;;28.26;29.25;95502.75;5109779;28;20066;-61
2022/11/18 07:11:34;;;;;;;3.13;2.28;;;;;;;28.38;28.68;95494.16;5104183;28;20481;-61
2022/11/18 07:14:01;;;;;;;2.42;2.03;;;;;;;28.44;29.45;95488.00;5096100;28;20139;-61
2022/11/18 07:16:28;;;;;;;2.30;2.10;;;;;;;28.44;29.01;95481.81;5095954;28;20058;-61
2022/11/18 07:18:57;;;;;;;2.70;2.45;;;;;;;28.75;29.52;95489.41;5096024;28;20048;-61
2022/11/18 07:21:26;;;;;;;3.97;2.53;;;;;;;28.55;29.52;95488.47;5095941;28;20217;-61
2022/11/18 07:23:53;;;;;;;4.15;2.80;;;;;;;28.76;29.47;95492.94;5096021;28;20130;-61
2022/11/18 07:26:21;;;;;;;3.38;2.30;;;;;;;29.21;29.18;95494.41;5095907;28;20489;-61
2022/11/18 07:28:48;;;;;;;3.05;2.38;;;;;;;29.43;29.02;95495.09;5095828;28;20048;-62
2022/11/18 07:31:18;;;;;;;2.72;2.45;;;;;;;29.79;28.33;95495.81;5095789;28;20048;-61
2022/11/18 07:33:47;;;;;;;3.13;2.42;;;;;;;29.87;28.03;95487.53;5095793;28;20048;-62
2022/11/18 07:36:17;;;;;;;3.10;2.50;;;;;;;30.07;27.58;95478.59;5095646;28;20055;-62
2022/11/18 07:38:44;;;;;;;2.72;2.25;;;;;;;30.10;28.18;95482.78;5095708;28;20050;-62
2022/11/18 07:41:13;;;;;;;3.95;2.70;;;;;;;29.72;28.36;95479.66;5095571;28;20401;-62
2022/11/18 07:43:41;;;;;;;3.95;3.17;;;;;;;29.91;28.56;95479.03;5095667;28;20727;-62
2022/11/18 07:46:15;;;;;;;4.07;3.20;;;;;;;30.45;27.30;95485.25;5095604;28;20139;-61
2022/11/18 07:48:45;;;;;;;3.72;2.78;;;;;;;30.72;27.17;95484.34;5095599;28;20048;-62
2022/11/18 07:51:13;;;;;;;3.65;2.50;;;;;;;30.92;26.76;95489.72;5095497;28;20437;-62
2022/11/18 07:53:42;;;;;;;3.53;3.22;;;;;;;31.09;26.37;95486.53;5095395;28;20050;-61
2022/11/18 07:56:09;;;;;;;3.80;2.78;;;;;;;30.98;27.01;95490.75;5095401;28;20051;-62
2022/11/18 07:58:37;;;;;;;4.38;2.50;;;;;;;30.74;27.21;95493.91;5095496;28;20113;-62
2022/11/18 08:01:08;;;;;;;3.08;2.78;;;;;;;30.33;27.75;95489.59;5095256;28;20080;-62
2022/11/18 08:03:35;;;;;;;2.60;2.38;;;;;;;30.30;27.71;95482.78;5095106;28;20048;-62
2022/11/18 08:06:03;;;;;;;3.00;2.70;;;;;;;30.00;27.89;95478.63;5095174;28;20436;-62
2022/11/18 08:08:30;;;;;;;3.17;2.78;;;;;;;29.48;29.48;95475.63;5095220;28;20064;-61
2022/11/18 08:11:00;;;;;;;3.35;2.92;;;;;;;28.85;29.79;95469.41;5094996;28;20119;-62
2022/11/18 08:13:28;;;;;;;2.63;2.33;;;;;;;28.24;31.69;95461.78;5094885;28;20087;-62
2022/11/18 08:15:56;;;;;;;3.85;2.70;;;;;;;27.51;33.21;95465.50;5094870;28;20048;-61
2022/11/18 08:18:24;;;;;;;5.13;3.05;;;;;;;26.54;34.18;95460.22;5094919;28;20534;-61
2022/11/18 08:20:51;;;;;;;2.67;2.47;;;;;;;25.89;35.65;95464.22;5094918;28;20117;-61
2022/11/18 08:23:18;;;;;;;3.60;2.80;;;;;;;25.55;36.60;95463.59;5093746;28;20451;-61
2022/11/18 08:25:46;;;;;;;3.83;2.60;;;;;;;25.23;36.60;95465.50;5094848;28;20094;-61
2022/11/18 08:28:15;;;;;;;2.78;2.53;;;;;;;24.66;38.13;95457.59;5094669;28;20044;-61
2022/11/18 08:30:42;;;;;;;3.00;2.60;;;;;;;24.21;39.86;95454.53;5094638;28;20048;-61
2022/11/18 08:33:09;;;;;;;2.95;2.55;;;;;;;23.32;41.56;95456.88;5094585;28;20505;-61
2022/11/18 08:35:36;;;;;;;3.50;2.50;;;;;;;22.80;43.21;95450.75;5094471;28;20048;-61
2022/11/18 08:38:04;;;;;;;5.15;2.72;;;;;;;22.41;44.03;95446.75;5094429;28;20048;-61
2022/11/18 08:40:31;;;;;;;3.90;2.92;;;;;;;22.03;44.15;95440.88;5094351;28;20078;-61
2022/11/18 08:42:58;;;;;;;4.68;2.88;;;;;;;21.48;46.41;95440.09;5094263;28;20048;-61
2022/11/18 08:45:27;;;;;;;3.53;2.50;;;;;;;20.87;48.74;95441.53;5094292;28;20051;-61
2022/11/18 08:47:54;;;;;;;5.93;2.67;;;;;;;20.61;49.40;95438.72;5094199;28;20405;-61
2022/11/18 08:50:21;;;;;;;4.68;3.00;;;;;;;20.31;50.35;95437.03;5094168;28;20519;-60
2022/11/18 08:52:48;;;;;;;3.70;2.60;;;;;;;19.79;52.19;95438.28;5094195;28;20048;-61
2022/11/18 08:55:15;;;;;;;4.05;2.67;;;;;;;19.50;53.31;95439.16;5094221;28;20484;-60
2022/11/18 08:57:42;;;;;;;3.95;3.00;;;;;;;19.19;54.74;95448.13;5094123;28;20058;-61
2022/11/18 09:00:10;;;;;;;4.30;2.75;;;;;;;19.23;54.79;95442.53;5093871;28;20048;-61
2022/11/18 09:02:39;;;;;;;5.38;2.90;;;;;;;19.02;55.74;95441.63;5094034;28;20066;-61
2022/11/18 09:05:07;;;;;;;2.88;2.50;;;;;;;18.78;55.65;95447.34;5094085;28;20102;-60
2022/11/18 09:07:34;;;;;;;5.15;3.15;;;;;;;18.75;55.96;95448.44;5093933;28;20106;-61
2022/11/18 09:10:01;;;;;;;6.85;4.85;;;;;;;18.74;55.65;95448.56;5093879;28;20097;-61
2022/11/18 09:12:28;;;;;;;9.05;5.78;;;;;;;18.81;55.78;95445.25;5093971;28;20508;-61
2022/11/18 09:14:55;;;;;;;11.95;6.20;;;;;;;18.93;55.08;95438.00;5093893;28;20397;-61
2022/11/18 09:17:22;;;;;;;13.13;7.90;;;;;;;18.97;54.88;95433.28;5093899;28;20481;-61
2022/11/18 09:19:50;;;;;;;13.02;7.88;;;;;;;18.90;55.06;95437.47;5093884;28;20122;-61
2022/11/18 09:22:17;;;;;;;15.60;7.95;;;;;;;18.79;56.49;95441.88;5093682;28;20072;-61
2022/11/18 09:24:44;;;;;;;11.48;7.57;;;;;;;18.73;55.88;95439.81;5093677;28;20059;-61
2022/11/18 09:27:11;;;;;;;12.18;7.25;;;;;;;18.72;56.62;95432.00;5093649;28;20560;-61
2022/11/18 09:29:38;;;;;;;9.30;6.57;;;;;;;18.60;56.30;95423.31;5093574;28;20044;-61
2022/11/18 09:32:05;;;;;;;10.52;7.43;;;;;;;18.62;55.69;95422.19;5093680;28;20051;-61
2022/11/18 09:34:34;;;;;;;11.50;7.72;;;;;;;18.60;56.18;95428.63;5093249;28;20499;-61
2022/11/18 09:37:05;;;;;;;12.85;7.30;;;;;;;18.51;57.86;95424.97;5093453;28;20054;-61
2022/11/18 09:39:34;;;;;;;12.60;8.35;;;;;;;18.55;56.81;95426.38;5093432;28;20086;-61
2022/11/18 09:42:15;;;;;;;8.52;6.47;;;;;;;18.62;56.39;95430.16;5093417;28;20048;-61
2022/11/18 09:44:55;;;;;;;12.02;7.28;;;;;;;18.40;57.07;95421.47;5093427;28;20051;-61
2022/11/18 09:47:27;;;;;;;11.45;6.80;;;;;;;18.33;58.99;95419.47;5093500;28;20061;-61
2022/11/18 09:49:56;;;;;;;13.38;7.20;;;;;;;18.23;57.80;95408.84;5093497;28;20044;-61
2022/11/18 09:52:30;;;;;;;9.32;6.95;;;;;;;18.20;58.07;95409.94;5093341;28;20083;-61
2022/11/18 09:54:58;;;;;;;15.32;8.02;;;;;;;18.11;58.18;95403.66;5093283;28;20132;-61
2022/11/18 09:57:31;;;;;;;16.98;7.93;;;;;;;18.14;57.93;95392.81;5093405;28;20139;-61
2022/11/18 10:00:01;;;;;;;11.27;7.15;;;;;;;18.21;58.71;95389.63;5093215;28;20131;-61
2022/11/18 10:02:45;;;;;;;11.93;7.65;;;;;;;18.17;58.47;95384.59;5093227;28;20055;-61
2022/11/18 10:05:16;;;;;;;12.13;7.45;;;;;;;18.22;58.66;95384.19;5093160;28;20052;-61
2022/11/18 10:07:54;;;;;;;11.70;7.60;;;;;;;18.13;59.13;95388.50;5093198;28;20052;-61
2022/11/18 10:10:32;;;;;;;13.27;7.00;;;;;;;18.09;59.18;95392.31;5092909;28;20101;-61
2022/11/18 10:13:05;;;;;;;14.32;7.25;;;;;;;17.87;58.75;95383.63;5093151;28;20101;-61
2022/11/18 10:15:37;;;;;;;7.78;5.88;;;;;;;17.68;58.16;95385.19;5093081;28;20048;-61
2022/11/18 10:18:20;;;;;;;8.48;6.03;;;;;;;17.44;58.07;95382.81;5093018;28;20091;-61
2022/11/18 10:20:56;;;;;;;8.10;4.88;;;;;;;17.21;59.68;95380.28;5093094;28;20048;-61
2022/11/18 10:23:29;;;;;;;12.52;5.72;;;;;;;16.98;59.53;95376.91;5092954;28;20067;-61
2022/11/18 10:25:57;;;;;;;5.95;4.68;;;;;;;16.92;60.72;95370.31;5093094;28;20076;-61
2022/11/18 10:28:28;;;;;;;6.97;5.03;;;;;;;16.82;60.89;95357.03;5092949;28;20047;-61
2022/11/18 10:31:04;;;;;;;9.38;4.78;;;;;;;16.90;61.20;95361.69;5093070;28;20401;-61
2022/11/18 10:33:31;;;;;;;9.05;4.47;;;;;;;16.76;60.12;95352.25;5092976;28;20044;-61
2022/11/18 10:36:19;;;;;;;5.07;4.57;;;;;;;16.63;60.09;95349.78;5092965;28;20393;-61
2022/11/18 10:38:47;;;;;;;5.85;4.47;;;;;;;16.41;60.98;95347.06;5092987;28;20105;-61
2022/11/18 10:41:16;;;;;;;5.85;4.55;;;;;;;16.31;62.37;95345.31;5092771;28;20164;-61
2022/11/18 10:43:47;;;;;;;9.73;4.88;;;;;;;16.34;62.20;95351.16;5092817;28;20052;-61
2022/11/18 10:46:23;;;;;;;7.20;4.07;;;;;;;16.42;62.33;95345.28;5093055;28;20044;-61
2022/11/18 10:49:16;;;;;;;7.28;4.55;;;;;;;16.48;62.66;95343.94;5096545;28;20079;-61
2022/11/18 10:51:45;;;;;;;11.73;5.07;;;;;;;16.60;62.08;95337.69;5093718;28;20078;-61
2022/11/18 10:54:18;;;;;;;9.40;5.93;;;;;;;16.55;61.24;95335.41;5096437;28;20044;-61
2022/11/18 10:56:47;;;;;;;12.25;5.70;;;;;;;16.51;61.24;95330.50;5096574;28;20083;-61
2022/11/18 10:59:28;;;;;;;6.90;4.53;;;;;;;16.45;62.02;95321.28;5096338;28;20082;-61
2022/11/18 11:02:02;;;;;;;7.65;4.85;;;;;;;16.54;62.05;95323.19;5096267;28;20486;-61
2022/11/18 11:04:30;;;;;;;5.18;3.80;;;;;;;16.41;60.85;95331.25;5096479;28;20084;-61
2022/11/18 11:06:58;;;;;;;11.05;5.50;;;;;;;16.23;61.24;95312.47;5096368;28;20040;-61
2022/11/18 11:09:29;;;;;;;7.20;5.03;;;;;;;16.22;61.25;95315.25;5096280;28;20055;-61
2022/11/18 11:12:00;;;;;;;5.95;4.85;;;;;;;16.19;61.80;95304.94;5096038;28;20055;-61
2022/11/18 11:14:32;;;;;;;5.70;4.32;;;;;;;16.27;61.28;95303.34;5096154;28;20082;-61
2022/11/18 11:17:09;;;;;;;4.93;3.70;;;;;;;16.28;60.33;95299.75;5096158;28;20052;-61
2022/11/18 11:19:47;;;;;;;5.55;4.07;;;;;;;16.37;61.27;95299.94;5096051;28;20055;-61
2022/11/18 11:22:15;;;;;;;4.30;3.40;;;;;;;16.45;59.81;95307.25;5095899;28;20417;-61
2022/11/18 11:24:44;;;;;;;7.15;4.03;;;;;;;16.49;60.37;95312.16;5095987;28;20054;-61
2022/11/18 11:27:37;;;;;;;6.28;4.60;;;;;;;16.44;59.56;95309.06;5095995;28;20048;-61
2022/11/18 11:30:17;;;;;;;7.40;3.90;;;;;;;16.42;59.16;95309.19;5095953;28;20478;-61
2022/11/18 11:33:09;;;;;;;6.97;4.25;;;;;;;16.33;60.39;95298.53;5095889;28;20126;-61
2022/11/18 11:35:45;;;;;;;4.88;3.80;;;;;;;16.46;59.33;95301.03;5095877;28;20078;-61
2022/11/18 11:38:21;;;;;;;4.97;3.20;;;;;;;16.47;58.96;95310.59;5095728;28;20055;-61
2022/11/18 11:41:02;;;;;;;3.22;2.55;;;;;;;16.49;58.24;95308.66;5095633;28;20052;-61
2022/11/18 11:43:38;;;;;;;4.15;2.50;;;;;;;16.40;58.20;95313.75;5095572;28;20084;-61
2022/11/18 11:46:20;;;;;;;4.00;2.67;;;;;;;16.37;58.12;95297.31;5095724;28;20082;-61
2022/11/18 11:48:57;;;;;;;3.83;2.22;;;;;;;16.44;58.21;95309.06;5095449;28;20052;-61
2022/11/18 11:51:32;;;;;;;2.42;2.17;;;;;;;16.54;55.04;95302.06;5095348;28;20055;-61
2022/11/18 11:54:19;;;;;;;1.88;1.35;;;;;;;16.60;55.36;95298.09;5095383;28;20048;-61
2022/11/18 11:56:53;;;;;;;2.20;1.60;;;;;;;16.63;52.14;95281.16;5095392;28;20051;-61
2022/11/18 11:59:29;;;;;;;3.45;1.80;;;;;;;16.69;52.75;95280.66;5095158;28;20046;-61
2022/11/18 12:02:15;;;;;;;2.17;1.83;;;;;;;16.77;52.66;95272.91;5095294;28;20058;-61
2022/11/18 12:04:46;;;;;;;1.70;1.45;;;;;;;16.87;51.99;95275.63;5095188;28;20044;-61
2022/11/18 12:07:18;;;;;;;1.80;1.70;;;;;;;16.88;52.99;95272.03;5095119;28;20127;-61
2022/11/18 12:10:06;;;;;;;2.08;1.45;;;;;;;16.97;52.70;95264.28;5094832;28;20074;-61
2022/11/18 12:12:43;;;;;;;3.00;1.83;;;;;;;17.11;52.81;95268.44;5094948;28;20070;-61
2022/11/18 12:15:26;;;;;;;2.05;1.55;;;;;;;17.25;52.27;95264.63;5094982;28;20072;-61
2022/11/18 12:18:00;;;;;;;2.45;1.70;;;;;;;17.48;51.48;95264.44;5094904;28;20043;-60
2022/11/18 12:20:40;;;;;;;2.85;1.65;;;;;;;17.67;51.73;95258.41;5094895;28;20044;-61